Time;durP1;ratioP1;P1;durP2;ratioP2;P2;SDS_P1;SDS_P2;PMS_P1;PMS_P2;Temp;Humidity;BMP_temperature;BMP_pressure;BME280_temperature;BME280_humidity;BME280_pressure;Samples;Min_cycle;Max_cycle;Signal;HPM_P1;HPM_P2
2023/09/08 00:01:41;;;;;;;;;30.00;28.00;;;;;;;;5102461;27;45479;-81
2023/09/08 00:04:07;;;;;;;;;24.67;24.67;;;;;;;;5092157;27;45454;-81
2023/09/08 00:06:32;;;;;;;;;37.67;33.33;;;;;;;;5102282;27;45765;-81
2023/09/08 00:08:57;;;;;;;;;35.33;32.67;;;;;;;;5101856;27;45362;-82
2023/09/08 00:11:23;;;;;;;;;28.00;24.33;;;;;;;;5076818;27;45654;-82
2023/09/08 00:13:50;;;;;;;;;24.33;24.00;;;;;;;;5082865;27;47465;-82
2023/09/08 00:16:15;;;;;;;;;27.67;25.00;;;;;;;;5102816;27;45458;-81
2023/09/08 00:18:40;;;;;;;;;27.00;22.00;;;;;;;;5079736;27;45478;-80
2023/09/08 00:21:06;;;;;;;;;28.00;26.00;;;;;;;;5098579;27;45511;-82
2023/09/08 00:23:31;;;;;;;;;30.00;24.00;;;;;;;;5072297;27;46577;-79
2023/09/08 00:25:58;;;;;;;;;27.67;22.00;;;;;;;;5083968;27;45508;-81
2023/09/08 00:28:23;;;;;;;;;25.67;23.67;;;;;;;;5098027;27;45298;-82
2023/09/08 00:30:49;;;;;;;;;29.67;24.33;;;;;;;;5091583;27;45686;-81
2023/09/08 00:33:14;;;;;;;;;24.33;22.33;;;;;;;;5089907;27;46514;-82
2023/09/08 00:35:43;;;;;;;;;33.00;26.67;;;;;;;;5091603;27;45725;-80
2023/09/08 00:38:09;;;;;;;;;27.00;23.67;;;;;;;;5094438;27;45397;-81
2023/09/08 00:40:34;;;;;;;;;21.33;20.00;;;;;;;;5096050;27;45787;-81
2023/09/08 00:42:59;;;;;;;;;31.67;25.00;;;;;;;;5104435;27;45984;-81
2023/09/08 00:45:29;;;;;;;;;20.67;19.67;;;;;;;;5102054;27;45681;-80
2023/09/08 00:47:54;;;;;;;;;30.67;25.00;;;;;;;;5083131;27;45350;-81
2023/09/08 00:50:19;;;;;;;;;28.33;25.33;;;;;;;;5100009;27;45698;-80
2023/09/08 00:52:45;;;;;;;;;25.67;25.67;;;;;;;;5101214;27;45475;-81
2023/09/08 00:55:10;;;;;;;;;27.00;24.00;;;;;;;;5092622;27;45693;-81
2023/09/08 00:57:36;;;;;;;;;23.00;20.33;;;;;;;;5097770;27;45663;-81
2023/09/08 01:00:04;;;;;;;;;21.33;19.00;;;;;;;;5097043;27;45361;-82
2023/09/08 01:02:29;;;;;;;;;26.67;25.67;;;;;;;;5099524;27;46164;-82
2023/09/08 01:04:55;;;;;;;;;25.00;24.67;;;;;;;;5104637;27;45401;-83
2023/09/08 01:07:20;;;;;;;;;22.67;22.67;;;;;;;;5104053;27;44775;-81
2023/09/08 01:09:46;;;;;;;;;23.67;21.33;;;;;;;;5096290;27;45461;-83
2023/09/08 01:12:11;;;;;;;;;28.67;23.33;;;;;;;;5099183;27;45935;-81
2023/09/08 01:14:38;;;;;;;;;32.33;25.00;;;;;;;;5065592;27;45545;-81
2023/09/08 01:17:03;;;;;;;;;25.33;22.67;;;;;;;;5099823;27;45448;-83
2023/09/08 01:19:29;;;;;;;;;25.00;23.33;;;;;;;;5068499;27;45757;-81
2023/09/08 01:22:12;;;;;;;;;24.67;23.33;;;;;;;;5089763;27;45782;-80
2023/09/08 01:24:51;;;;;;;;;25.33;24.67;;;;;;;;5093643;27;45470;-81
2023/09/08 01:27:17;;;;;;;;;23.33;19.33;;;;;;;;5073067;27;45480;-80
2023/09/08 01:29:44;;;;;;;;;27.00;23.67;;;;;;;;5098037;27;45373;-80
2023/09/08 01:32:10;;;;;;;;;23.67;21.67;;;;;;;;5095779;27;46942;-81
2023/09/08 01:34:39;;;;;;;;;28.33;21.00;;;;;;;;5099413;27;45408;-81
2023/09/08 01:37:04;;;;;;;;;29.67;27.33;;;;;;;;5085823;27;45425;-81
2023/09/08 01:39:30;;;;;;;;;30.33;24.33;;;;;;;;5085990;27;45428;-79
2023/09/08 01:41:55;;;;;;;;;29.00;26.00;;;;;;;;5092299;27;45915;-79
2023/09/08 01:44:20;;;;;;;;;34.00;29.00;;;;;;;;5093236;27;45392;-79
2023/09/08 01:46:46;;;;;;;;;32.00;29.00;;;;;;;;5077030;27;45557;-80
2023/09/08 01:49:11;;;;;;;;;29.67;27.67;;;;;;;;5101392;27;45629;-81
2023/09/08 01:51:36;;;;;;;;;30.00;30.00;;;;;;;;5077500;27;47191;-80
2023/09/08 01:54:01;;;;;;;;;27.00;24.67;;;;;;;;5079810;27;45537;-80
2023/09/08 01:56:27;;;;;;;;;36.33;32.67;;;;;;;;5098048;27;45370;-81
2023/09/08 01:58:52;;;;;;;;;37.33;30.67;;;;;;;;5081326;27;45815;-80
2023/09/08 02:01:18;;;;;;;;;38.00;32.00;;;;;;;;5075332;27;47193;-81
2023/09/08 02:03:43;;;;;;;;;34.67;30.67;;;;;;;;5080954;27;45574;-81
2023/09/08 02:06:08;;;;;;;;;35.00;32.00;;;;;;;;5082092;27;45633;-81
2023/09/08 02:08:33;;;;;;;;;40.00;30.67;;;;;;;;5099690;27;45722;-79
2023/09/08 02:10:59;;;;;;;;;31.67;30.67;;;;;;;;5099802;27;45432;-80
2023/09/08 02:13:26;;;;;;;;;29.67;28.33;;;;;;;;5080242;27;45438;-79
2023/09/08 02:15:52;;;;;;;;;33.00;31.67;;;;;;;;5095971;27;45411;-81
2023/09/08 02:18:17;;;;;;;;;32.00;31.67;;;;;;;;5088949;27;45396;-81
2023/09/08 02:20:42;;;;;;;;;32.00;29.00;;;;;;;;5080602;27;47301;-79
2023/09/08 02:23:07;;;;;;;;;37.00;32.67;;;;;;;;5096433;27;45375;-81
2023/09/08 02:25:33;;;;;;;;;30.67;28.33;;;;;;;;5078259;28;45491;-80
2023/09/08 02:27:58;;;;;;;;;30.33;28.33;;;;;;;;5095601;27;45575;-79
2023/09/08 02:30:23;;;;;;;;;35.00;31.67;;;;;;;;5091334;27;45513;-79
2023/09/08 02:32:49;;;;;;;;;27.67;26.00;;;;;;;;5099074;27;45389;-81
2023/09/08 02:35:14;;;;;;;;;34.67;32.67;;;;;;;;5076334;28;45315;-80
2023/09/08 02:37:39;;;;;;;;;31.67;28.00;;;;;;;;5097630;27;45440;-80
2023/09/08 02:40:05;;;;;;;;;36.00;32.33;;;;;;;;5093048;27;45673;-80
2023/09/08 02:42:31;;;;;;;;;29.00;28.33;;;;;;;;5092053;27;45690;-80
2023/09/08 02:44:56;;;;;;;;;37.33;33.00;;;;;;;;5094111;27;45374;-81
2023/09/08 02:47:21;;;;;;;;;30.33;28.33;;;;;;;;5073031;27;46083;-79
2023/09/08 02:49:46;;;;;;;;;35.33;31.00;;;;;;;;5087446;27;45937;-80
2023/09/08 02:52:12;;;;;;;;;30.00;29.67;;;;;;;;5093724;27;45346;-81
2023/09/08 02:54:37;;;;;;;;;28.67;27.67;;;;;;;;5094344;27;45750;-80
2023/09/08 02:57:02;;;;;;;;;23.67;15.67;;;;;;;;5093033;27;45745;-80
2023/09/08 02:59:27;;;;;;;;;30.00;28.33;;;;;;;;5082373;27;46431;-80
2023/09/08 03:01:53;;;;;;;;;31.67;31.00;;;;;;;;5088218;27;45279;-80
2023/09/08 03:04:18;;;;;;;;;30.33;29.33;;;;;;;;5076461;27;45393;-82
2023/09/08 03:06:43;;;;;;;;;31.00;29.33;;;;;;;;5094403;27;45398;-80
2023/09/08 03:09:09;;;;;;;;;39.33;32.67;;;;;;;;5095321;27;46373;-80
2023/09/08 03:11:34;;;;;;;;;33.67;27.67;;;;;;;;5097532;27;45405;-81
2023/09/08 03:14:00;;;;;;;;;30.00;30.00;;;;;;;;5086299;27;46445;-80
2023/09/08 03:16:25;;;;;;;;;36.33;31.67;;;;;;;;5077143;28;46514;-81
2023/09/08 03:18:50;;;;;;;;;31.33;31.00;;;;;;;;5098304;27;46614;-80
2023/09/08 03:21:15;;;;;;;;;37.67;31.33;;;;;;;;5091647;27;46013;-80
2023/09/08 03:23:42;;;;;;;;;30.67;27.00;;;;;;;;5081067;27;46060;-80
2023/09/08 03:26:08;;;;;;;;;36.67;31.33;;;;;;;;5099945;27;46241;-81
2023/09/08 03:28:34;;;;;;;;;31.67;28.67;;;;;;;;5072138;28;48099;-82
2023/09/08 03:30:59;;;;;;;;;36.33;31.33;;;;;;;;5078061;28;45620;-81
2023/09/08 03:33:24;;;;;;;;;30.33;27.33;;;;;;;;5077472;28;45373;-81
2023/09/08 03:35:49;;;;;;;;;28.33;27.67;;;;;;;;5075232;28;46012;-80
2023/09/08 03:38:15;;;;;;;;;37.67;32.00;;;;;;;;5074779;28;45400;-81
2023/09/08 03:40:40;;;;;;;;;32.33;29.33;;;;;;;;5078270;28;46135;-80
2023/09/08 03:43:05;;;;;;;;;29.00;28.33;;;;;;;;5076754;28;45677;-79
2023/09/08 03:45:30;;;;;;;;;30.00;27.67;;;;;;;;5079948;28;45900;-81
2023/09/08 03:47:56;;;;;;;;;34.67;32.00;;;;;;;;5081180;28;45408;-82
2023/09/08 03:50:21;;;;;;;;;27.67;27.33;;;;;;;;5066363;28;45338;-83
2023/09/08 03:52:47;;;;;;;;;32.00;29.00;;;;;;;;5076993;28;45541;-81
2023/09/08 03:55:12;;;;;;;;;30.67;26.33;;;;;;;;5072738;28;46372;-84
2023/09/08 03:57:37;;;;;;;;;36.00;29.67;;;;;;;;5069963;28;47160;-80
2023/09/08 04:00:05;;;;;;;;;37.33;32.33;;;;;;;;5073760;28;45394;-81
2023/09/08 04:02:30;;;;;;;;;34.67;30.33;;;;;;;;5059050;28;45520;-81
2023/09/08 04:04:55;;;;;;;;;40.00;32.33;;;;;;;;5072232;28;45738;-80
2023/09/08 04:07:21;;;;;;;;;32.67;28.67;;;;;;;;5061423;28;46150;-84
2023/09/08 04:09:46;;;;;;;;;33.00;30.33;;;;;;;;5059645;28;46006;-83
2023/09/08 04:12:12;;;;;;;;;46.67;34.00;;;;;;;;5058312;28;45821;-82
2023/09/08 04:14:37;;;;;;;;;36.00;30.67;;;;;;;;5036050;28;45886;-80
2023/09/08 04:17:02;;;;;;;;;29.67;27.00;;;;;;;;5062300;28;45605;-82
2023/09/08 04:19:28;;;;;;;;;31.67;30.33;;;;;;;;5065370;28;45950;-81
2023/09/08 04:21:53;;;;;;;;;34.33;31.33;;;;;;;;5068705;28;45672;-82
2023/09/08 04:24:19;;;;;;;;;35.33;30.00;;;;;;;;5073682;27;45883;-81
2023/09/08 04:26:46;;;;;;;;;36.33;32.33;;;;;;;;5071447;28;47645;-80
2023/09/08 04:29:11;;;;;;;;;34.67;31.00;;;;;;;;5058921;27;45425;-81
2023/09/08 04:31:37;;;;;;;;;41.00;31.00;;;;;;;;5053517;28;45703;-82
2023/09/08 04:34:02;;;;;;;;;36.67;31.00;;;;;;;;5049726;28;45693;-82
2023/09/08 04:36:27;;;;;;;;;39.33;32.00;;;;;;;;5049095;28;46511;-81
2023/09/08 04:38:52;;;;;;;;;35.00;31.00;;;;;;;;5047218;28;45877;-83
2023/09/08 04:41:18;;;;;;;;;31.67;30.33;;;;;;;;5059136;27;45495;-80
2023/09/08 04:43:43;;;;;;;;;29.33;24.67;;;;;;;;5081146;27;45904;-82
2023/09/08 04:46:08;;;;;;;;;29.67;28.33;;;;;;;;5058713;28;47022;-81
2023/09/08 04:48:34;;;;;;;;;38.00;31.00;;;;;;;;5042215;28;46683;-83
2023/09/08 04:50:59;;;;;;;;;36.33;30.67;;;;;;;;5039073;28;45980;-82
2023/09/08 04:53:24;;;;;;;;;32.33;29.00;;;;;;;;5034092;28;46920;-84
2023/09/08 04:55:49;;;;;;;;;32.00;31.33;;;;;;;;5047184;28;45631;-82
2023/09/08 04:58:15;;;;;;;;;25.00;22.00;;;;;;;;5049778;28;45540;-82
2023/09/08 05:00:40;;;;;;;;;33.33;29.67;;;;;;;;5047103;28;45741;-84
2023/09/08 05:03:05;;;;;;;;;35.67;32.33;;;;;;;;5053660;28;45394;-81
2023/09/08 05:05:30;;;;;;;;;28.00;23.67;;;;;;;;5059069;28;46292;-82
2023/09/08 05:07:56;;;;;;;;;33.33;28.67;;;;;;;;5052493;28;45780;-81
2023/09/08 05:10:25;;;;;;;;;31.33;28.33;;;;;;;;5050311;28;45550;-84
2023/09/08 05:12:50;;;;;;;;;30.00;28.67;;;;;;;;5050437;28;45448;-83
2023/09/08 05:15:17;;;;;;;;;36.67;32.33;;;;;;;;5050788;28;45491;-81
2023/09/08 05:17:45;;;;;;;;;31.33;28.67;;;;;;;;5034886;28;45486;-82
2023/09/08 05:20:11;;;;;;;;;33.00;27.67;;;;;;;;5061154;28;45915;-82
2023/09/08 05:22:36;;;;;;;;;33.00;30.33;;;;;;;;5034191;28;46317;-82
2023/09/08 05:25:02;;;;;;;;;29.33;27.00;;;;;;;;5055774;28;45864;-82
2023/09/08 05:27:27;;;;;;;;;31.00;25.67;;;;;;;;5055666;28;45576;-81
2023/09/08 05:29:52;;;;;;;;;29.00;27.00;;;;;;;;5035026;28;45491;-80
2023/09/08 05:32:17;;;;;;;;;34.00;29.00;;;;;;;;5053875;28;45391;-81
2023/09/08 05:34:43;;;;;;;;;32.33;28.67;;;;;;;;5057211;28;45805;-80
2023/09/08 05:37:08;;;;;;;;;33.33;28.00;;;;;;;;5033279;28;45727;-81
2023/09/08 05:39:33;;;;;;;;;28.67;26.67;;;;;;;;5044872;28;45451;-84
2023/09/08 05:41:59;;;;;;;;;34.00;31.67;;;;;;;;5052935;28;45537;-81
2023/09/08 05:44:25;;;;;;;;;36.67;31.00;;;;;;;;5051719;28;45533;-80
2023/09/08 05:46:50;;;;;;;;;30.67;28.00;;;;;;;;5041688;28;45475;-84
2023/09/08 05:49:17;;;;;;;;;25.67;23.33;;;;;;;;5038146;28;45649;-84
2023/09/08 05:51:43;;;;;;;;;30.67;27.00;;;;;;;;5054613;28;45506;-86
2023/09/08 05:54:08;;;;;;;;;28.00;25.33;;;;;;;;5040384;28;45549;-86
2023/09/08 05:56:33;;;;;;;;;23.33;23.33;;;;;;;;5039558;28;45760;-84
2023/09/08 05:59:00;;;;;;;;;30.00;27.00;;;;;;;;5056216;28;45486;-82
2023/09/08 06:01:26;;;;;;;;;29.33;27.67;;;;;;;;5037477;28;45798;-84
2023/09/08 06:03:51;;;;;;;;;29.33;26.67;;;;;;;;5031695;28;47327;-80
2023/09/08 06:06:16;;;;;;;;;28.67;27.33;;;;;;;;5043091;28;45859;-76
2023/09/08 06:08:41;;;;;;;;;28.00;25.33;;;;;;;;5052466;28;45813;-79
2023/09/08 06:11:06;;;;;;;;;23.67;21.67;;;;;;;;5051856;28;45830;-81
2023/09/08 06:13:32;;;;;;;;;23.00;20.67;;;;;;;;5050693;28;46140;-78
2023/09/08 06:15:57;;;;;;;;;26.33;25.00;;;;;;;;5048764;28;45372;-79
2023/09/08 06:18:22;;;;;;;;;29.00;25.33;;;;;;;;5046250;28;46142;-80
2023/09/08 06:20:48;;;;;;;;;30.33;23.33;;;;;;;;5025706;28;46074;-78
2023/09/08 06:23:14;;;;;;;;;25.67;24.33;;;;;;;;5051849;28;45991;-80
2023/09/08 06:25:39;;;;;;;;;24.67;23.67;;;;;;;;5033035;28;45762;-81
2023/09/08 06:28:04;;;;;;;;;27.00;23.67;;;;;;;;5055764;28;45789;-80
2023/09/08 06:30:30;;;;;;;;;25.67;24.00;;;;;;;;5066642;28;46393;-80
2023/09/08 06:32:55;;;;;;;;;27.33;22.33;;;;;;;;5071255;28;46084;-78
2023/09/08 06:35:20;;;;;;;;;30.33;27.00;;;;;;;;5071142;28;45946;-79
2023/09/08 06:37:45;;;;;;;;;26.00;23.33;;;;;;;;5069862;28;46088;-78
2023/09/08 06:40:11;;;;;;;;;23.00;22.33;;;;;;;;5071604;28;45720;-79
2023/09/08 06:42:36;;;;;;;;;25.00;24.00;;;;;;;;5070568;28;45460;-80
2023/09/08 06:45:01;;;;;;;;;26.33;22.67;;;;;;;;5065311;28;45531;-79
2023/09/08 06:47:27;;;;;;;;;23.33;21.67;;;;;;;;5070931;28;45384;-77
2023/09/08 06:49:52;;;;;;;;;27.67;22.00;;;;;;;;5070815;28;45499;-79
2023/09/08 06:52:17;;;;;;;;;24.33;24.33;;;;;;;;5071957;28;45764;-79
2023/09/08 06:54:45;;;;;;;;;30.67;25.00;;;;;;;;5072643;28;45311;-78
2023/09/08 06:57:10;;;;;;;;;24.00;22.33;;;;;;;;5092021;27;45468;-79
2023/09/08 06:59:35;;;;;;;;;26.00;22.33;;;;;;;;5073101;27;45426;-78
2023/09/08 07:02:00;;;;;;;;;25.67;23.00;;;;;;;;5093242;27;46266;-80
2023/09/08 07:04:26;;;;;;;;;26.00;23.67;;;;;;;;5086375;27;45568;-78
2023/09/08 07:06:54;;;;;;;;;26.33;24.00;;;;;;;;5091544;27;45455;-79
2023/09/08 07:09:19;;;;;;;;;23.00;21.00;;;;;;;;5090905;27;45799;-79
2023/09/08 07:11:44;;;;;;;;;24.33;22.67;;;;;;;;5092221;27;46349;-79
2023/09/08 07:14:10;;;;;;;;;24.67;23.67;;;;;;;;5095153;27;45769;-78
2023/09/08 07:16:35;;;;;;;;;24.00;19.67;;;;;;;;5090806;27;45682;-79
2023/09/08 07:19:01;;;;;;;;;20.00;19.00;;;;;;;;5090953;27;45681;-78
2023/09/08 07:21:26;;;;;;;;;20.33;19.00;;;;;;;;5090582;27;45830;-78
2023/09/08 07:23:52;;;;;;;;;19.00;18.00;;;;;;;;5091905;27;45393;-81
2023/09/08 07:26:17;;;;;;;;;28.00;23.00;;;;;;;;5092754;27;45658;-79
2023/09/08 07:28:43;;;;;;;;;21.67;20.67;;;;;;;;5092559;27;45755;-78
2023/09/08 07:31:09;;;;;;;;;22.33;21.00;;;;;;;;5092054;27;45769;-78
2023/09/08 07:33:34;;;;;;;;;23.67;20.00;;;;;;;;5091835;27;45519;-79
2023/09/08 07:36:04;;;;;;;;;23.00;20.33;;;;;;;;5091498;27;45460;-77
2023/09/08 07:38:29;;;;;;;;;21.67;20.00;;;;;;;;5069215;27;46155;-78
2023/09/08 07:40:54;;;;;;;;;20.67;20.67;;;;;;;;5090943;27;45446;-79
2023/09/08 07:43:19;;;;;;;;;25.00;22.33;;;;;;;;5090480;27;45577;-78
2023/09/08 07:45:45;;;;;;;;;24.33;21.00;;;;;;;;5088344;27;45430;-78
2023/09/08 07:48:10;;;;;;;;;23.67;22.33;;;;;;;;5088644;27;45748;-78
2023/09/08 07:50:35;;;;;;;;;28.00;23.33;;;;;;;;5089967;27;45634;-79
2023/09/08 07:53:01;;;;;;;;;24.67;21.67;;;;;;;;5090538;27;45473;-79
2023/09/08 07:55:27;;;;;;;;;23.00;23.00;;;;;;;;5091481;27;45404;-78
2023/09/08 07:57:52;;;;;;;;;21.00;21.00;;;;;;;;5093529;27;46589;-78
2023/09/08 08:00:18;;;;;;;;;23.67;21.00;;;;;;;;5094064;27;46461;-77
2023/09/08 08:02:45;;;;;;;;;28.67;25.67;;;;;;;;5095137;27;45432;-78
2023/09/08 08:05:10;;;;;;;;;22.33;22.33;;;;;;;;5094707;27;45971;-78
2023/09/08 08:07:35;;;;;;;;;34.00;28.33;;;;;;;;5094963;27;45763;-78
2023/09/08 08:10:01;;;;;;;;;29.33;24.33;;;;;;;;5087805;27;45739;-79
2023/09/08 08:12:26;;;;;;;;;27.67;24.33;;;;;;;;5091613;27;45858;-77
2023/09/08 08:14:52;;;;;;;;;24.00;23.33;;;;;;;;5096166;27;45495;-78
2023/09/08 08:17:19;;;;;;;;;25.00;23.33;;;;;;;;5094543;27;45478;-78
2023/09/08 08:19:44;;;;;;;;;25.67;24.67;;;;;;;;5075627;27;48083;-79
2023/09/08 08:22:09;;;;;;;;;24.00;23.00;;;;;;;;5093938;27;45914;-79
2023/09/08 08:24:35;;;;;;;;;23.33;23.33;;;;;;;;5070728;27;45912;-79
2023/09/08 08:27:01;;;;;;;;;25.67;24.67;;;;;;;;5087668;27;45563;-80
2023/09/08 08:29:26;;;;;;;;;30.00;24.67;;;;;;;;5080840;27;46822;-80
2023/09/08 08:31:52;;;;;;;;;26.00;24.00;;;;;;;;5066838;27;45915;-77
2023/09/08 08:34:17;;;;;;;;;29.67;23.67;;;;;;;;5092562;27;46080;-78
2023/09/08 08:36:42;;;;;;;;;27.67;25.00;;;;;;;;5073295;27;45774;-79
2023/09/08 08:39:07;;;;;;;;;28.33;24.33;;;;;;;;5091676;27;46791;-79
2023/09/08 08:41:37;;;;;;;;;30.67;26.67;;;;;;;;5072892;27;45775;-79
2023/09/08 08:44:03;;;;;;;;;26.00;23.67;;;;;;;;5075259;27;45829;-79
2023/09/08 08:46:29;;;;;;;;;24.33;24.33;;;;;;;;5077707;27;45465;-79
2023/09/08 08:48:54;;;;;;;;;28.00;23.00;;;;;;;;5094079;27;46677;-77
2023/09/08 08:51:22;;;;;;;;;26.67;22.33;;;;;;;;5093150;27;45425;-80
2023/09/08 08:53:47;;;;;;;;;26.33;23.33;;;;;;;;5091688;27;45705;-78
2023/09/08 08:56:13;;;;;;;;;26.00;24.00;;;;;;;;5092473;27;45610;-79
2023/09/08 08:58:39;;;;;;;;;30.33;25.67;;;;;;;;5092104;27;46330;-78
2023/09/08 09:01:05;;;;;;;;;22.33;22.33;;;;;;;;5066877;27;45694;-79
2023/09/08 09:03:31;;;;;;;;;23.33;19.33;;;;;;;;5092617;27;45577;-78
2023/09/08 09:05:56;;;;;;;;;21.67;19.33;;;;;;;;5091647;27;45472;-79
2023/09/08 09:08:23;;;;;;;;;18.67;18.67;;;;;;;;5066154;27;47072;-78
2023/09/08 09:10:48;;;;;;;;;21.00;21.00;;;;;;;;5086425;27;45510;-79
2023/09/08 09:13:14;;;;;;;;;21.00;17.33;;;;;;;;5073963;27;45825;-78
2023/09/08 09:15:40;;;;;;;;;22.33;20.33;;;;;;;;5085207;27;45899;-77
2023/09/08 09:18:06;;;;;;;;;23.00;19.33;;;;;;;;5091678;27;46475;-78
2023/09/08 09:20:31;;;;;;;;;21.67;17.67;;;;;;;;5087033;27;45469;-77
2023/09/08 09:22:57;;;;;;;;;17.00;16.00;;;;;;;;5091061;27;45512;-77
2023/09/08 09:25:23;;;;;;;;;17.00;14.67;;;;;;;;5072766;27;45799;-78
2023/09/08 09:27:55;;;;;;;;;16.00;15.67;;;;;;;;5043999;27;1127496;-77
2023/09/08 09:30:21;;;;;;;;;17.33;14.00;;;;;;;;5089170;27;45673;-78
2023/09/08 09:32:49;;;;;;;;;16.33;15.67;;;;;;;;5080689;27;45759;-78
2023/09/08 09:35:14;;;;;;;;;17.00;16.00;;;;;;;;5092558;27;45630;-80
2023/09/08 09:37:40;;;;;;;;;15.67;14.33;;;;;;;;5092822;27;45928;-79
2023/09/08 09:40:07;;;;;;;;;14.33;14.33;;;;;;;;5064358;27;45572;-81
2023/09/08 09:42:32;;;;;;;;;14.67;14.67;;;;;;;;5094286;27;45733;-79
2023/09/08 09:45:00;;;;;;;;;14.00;13.33;;;;;;;;5075899;27;45406;-80
2023/09/08 09:47:27;;;;;;;;;12.00;11.00;;;;;;;;5087265;27;46751;-80
2023/09/08 09:49:53;;;;;;;;;12.00;12.00;;;;;;;;5069804;27;45651;-79
2023/09/08 09:52:22;;;;;;;;;13.33;12.33;;;;;;;;5093258;27;45356;-83
2023/09/08 09:54:50;;;;;;;;;14.00;13.00;;;;;;;;5092973;27;45530;-78
2023/09/08 09:57:19;;;;;;;;;12.00;12.00;;;;;;;;5074368;27;47627;-80
2023/09/08 09:59:45;;;;;;;;;13.67;13.33;;;;;;;;5074727;27;45373;-80
2023/09/08 10:02:14;;;;;;;;;12.33;11.67;;;;;;;;5094588;27;45888;-80
2023/09/08 10:04:42;;;;;;;;;11.33;10.67;;;;;;;;5093227;27;45474;-79
2023/09/08 10:07:07;;;;;;;;;14.67;12.00;;;;;;;;5092918;27;45867;-80
2023/09/08 10:09:35;;;;;;;;;12.67;12.67;;;;;;;;5092047;27;45853;-77
2023/09/08 10:12:03;;;;;;;;;12.00;11.33;;;;;;;;5062018;27;46192;-78
2023/09/08 10:14:30;;;;;;;;;11.67;11.67;;;;;;;;5087354;27;45823;-79
2023/09/08 10:16:56;;;;;;;;;12.00;12.00;;;;;;;;5070209;27;46191;-78
2023/09/08 10:19:26;;;;;;;;;9.00;9.00;;;;;;;;5087720;27;45478;-80
2023/09/08 10:21:55;;;;;;;;;15.00;13.00;;;;;;;;5062733;27;45890;-81
2023/09/08 10:24:23;;;;;;;;;13.00;12.33;;;;;;;;5086025;27;45869;-79
2023/09/08 10:26:52;;;;;;;;;12.00;10.67;;;;;;;;5083118;27;47251;-78
2023/09/08 10:29:18;;;;;;;;;13.00;11.00;;;;;;;;5084069;27;45571;-77
2023/09/08 10:31:44;;;;;;;;;10.67;10.67;;;;;;;;5078240;27;45899;-79
2023/09/08 10:34:10;;;;;;;;;13.67;12.00;;;;;;;;5082522;27;46029;-80
2023/09/08 10:36:35;;;;;;;;;11.67;9.00;;;;;;;;5081040;27;45956;-84
2023/09/08 10:39:20;;;;;;;;;13.00;11.33;;;;;;;;5085426;27;45896;-78
2023/09/08 10:41:45;;;;;;;;;10.33;10.33;;;;;;;;5076938;27;45763;-80
2023/09/08 10:44:14;;;;;;;;;11.67;11.33;;;;;;;;5073067;27;45564;-78
2023/09/08 10:46:39;;;;;;;;;14.00;11.33;;;;;;;;5091230;27;46096;-79
2023/09/08 10:49:06;;;;;;;;;9.33;9.00;;;;;;;;5081736;27;45903;-81
2023/09/08 10:51:32;;;;;;;;;11.00;10.67;;;;;;;;5089589;27;45472;-80
2023/09/08 10:53:58;;;;;;;;;10.00;10.00;;;;;;;;5084930;27;45370;-79
2023/09/08 10:56:27;;;;;;;;;13.00;12.00;;;;;;;;5082809;27;46097;-79
2023/09/08 10:58:52;;;;;;;;;9.33;9.00;;;;;;;;5081785;27;45855;-78
2023/09/08 11:01:26;;;;;;;;;12.67;12.67;;;;;;;;5086436;27;45614;-79
2023/09/08 11:03:53;;;;;;;;;12.33;11.33;;;;;;;;5081335;27;45720;-80
2023/09/08 11:06:21;;;;;;;;;11.67;9.67;;;;;;;;5083456;27;45459;-79
2023/09/08 11:08:47;;;;;;;;;11.25;10.00;;;;;;;;5085738;27;45938;-79
2023/09/08 11:11:14;;;;;;;;;8.50;8.50;;;;;;;;5089867;27;45896;-78
2023/09/08 11:13:45;;;;;;;;;10.00;10.00;;;;;;;;5087910;27;45657;-78
2023/09/08 11:16:10;;;;;;;;;11.00;9.33;;;;;;;;5077766;27;45584;-80
2023/09/08 11:18:36;;;;;;;;;11.33;10.67;;;;;;;;5099411;27;44865;-78
2023/09/08 11:21:02;;;;;;;;;12.00;12.00;;;;;;;;5093761;27;46069;-76
2023/09/08 11:23:27;;;;;;;;;11.00;10.00;;;;;;;;5097354;27;45805;-77
2023/09/08 11:25:53;;;;;;;;;12.00;10.33;;;;;;;;5093877;27;45895;-77
2023/09/08 11:28:19;;;;;;;;;10.00;10.00;;;;;;;;5097559;27;45693;-77
2023/09/08 11:30:48;;;;;;;;;11.25;11.25;;;;;;;;5079633;27;45391;-80
2023/09/08 11:33:29;;;;;;;;;11.67;8.67;;;;;;;;5079384;27;46506;-77
2023/09/08 11:35:54;;;;;;;;;10.75;9.75;;;;;;;;5096909;27;45549;-78
2023/09/08 11:38:29;;;;;;;;;10.00;10.00;;;;;;;;5096107;27;45862;-79
2023/09/08 11:40:57;;;;;;;;;12.67;11.67;;;;;;;;5077075;27;46145;-77
2023/09/08 11:43:22;;;;;;;;;11.33;10.67;;;;;;;;5095205;27;45798;-85
2023/09/08 11:45:48;;;;;;;;;14.33;13.33;;;;;;;;5087437;27;45579;-79
2023/09/08 11:48:14;;;;;;;;;13.33;12.67;;;;;;;;5086716;27;45326;-78
2023/09/08 11:50:40;;;;;;;;;10.00;9.33;;;;;;;;5087789;27;45736;-79
2023/09/08 11:53:06;;;;;;;;;10.33;10.00;;;;;;;;5084040;27;46049;-79
2023/09/08 11:55:31;;;;;;;;;15.00;13.33;;;;;;;;5089226;27;46372;-82
2023/09/08 11:57:57;;;;;;;;;12.50;12.50;;;;;;;;5084287;27;45385;-80
2023/09/08 12:00:23;;;;;;;;;15.67;14.00;;;;;;;;5074341;27;45863;-79
2023/09/08 12:02:49;;;;;;;;;17.33;16.33;;;;;;;;5085854;27;45527;-81
2023/09/08 12:05:25;;;;;;;;;13.50;12.50;;;;;;;;5088824;27;47378;-79
2023/09/08 12:07:51;;;;;;;;;9.00;8.25;;;;;;;;5082345;27;45795;-78
2023/09/08 12:10:17;;;;;;;;;11.67;11.67;;;;;;;;5078350;27;45396;-79
2023/09/08 12:12:46;;;;;;;;;12.75;12.75;;;;;;;;5083295;27;47045;-80
2023/09/08 12:15:28;;;;;;;;;13.00;12.00;;;;;;;;5085892;27;46157;-72
2023/09/08 12:17:54;;;;;;;;;11.25;10.75;;;;;;;;5063455;27;46000;-73
2023/09/08 12:20:19;;;;;;;;;12.75;11.75;;;;;;;;5077252;27;45740;-73
2023/09/08 12:22:52;;;;;;;;;8.75;8.00;;;;;;;;5061785;27;45684;-72
2023/09/08 12:25:18;;;;;;;;;10.75;10.75;;;;;;;;5080238;27;45445;-73
2023/09/08 12:27:44;;;;;;;;;10.00;9.50;;;;;;;;5078900;27;45425;-76
2023/09/08 12:30:16;;;;;;;;;9.50;9.50;;;;;;;;5059719;27;45858;-71
2023/09/08 12:32:41;;;;;;;;;10.25;8.50;;;;;;;;5094271;27;45778;-73
2023/09/08 12:35:07;;;;;;;;;9.25;9.25;;;;;;;;5092866;27;45408;-74
2023/09/08 12:37:33;;;;;;;;;8.00;7.25;;;;;;;;5089791;27;46702;-73
2023/09/08 12:40:00;;;;;;;;;7.75;6.50;;;;;;;;5093516;27;45302;-72
2023/09/08 12:42:28;;;;;;;;;11.25;10.00;;;;;;;;5093390;27;45710;-73
2023/09/08 12:44:53;;;;;;;;;11.25;10.25;;;;;;;;5070855;27;46797;-73
2023/09/08 12:47:19;;;;;;;;;9.75;9.75;;;;;;;;5072689;27;45567;-71
2023/09/08 12:49:44;;;;;;;;;9.25;9.25;;;;;;;;5081045;27;45501;-73
2023/09/08 12:52:09;;;;;;;;;10.75;9.75;;;;;;;;5090919;27;45753;-72
2023/09/08 12:54:35;;;;;;;;;10.50;8.00;;;;;;;;5071632;27;46462;-71
2023/09/08 12:57:01;;;;;;;;;12.00;11.00;;;;;;;;5092349;27;45486;-74
2023/09/08 12:59:26;;;;;;;;;11.00;10.00;;;;;;;;5092709;27;45874;-72
2023/09/08 13:01:51;;;;;;;;;9.00;8.75;;;;;;;;5093181;27;45704;-72
2023/09/08 13:04:16;;;;;;;;;10.75;9.75;;;;;;;;5092893;27;46322;-72
2023/09/08 13:06:41;;;;;;;;;9.50;9.50;;;;;;;;5092707;27;45483;-73
2023/09/08 13:09:08;;;;;;;;;10.50;9.00;;;;;;;;5093635;27;45816;-72
2023/09/08 13:11:33;;;;;;;;;12.75;9.75;;;;;;;;5090524;27;45909;-73
2023/09/08 13:13:58;;;;;;;;;11.00;11.00;;;;;;;;5093123;27;45775;-72
2023/09/08 13:16:24;;;;;;;;;13.50;10.50;;;;;;;;5091701;27;45508;-74
2023/09/08 13:18:49;;;;;;;;;11.00;10.00;;;;;;;;5092758;27;46557;-74
2023/09/08 13:21:14;;;;;;;;;12.75;11.25;;;;;;;;5074296;27;45789;-71
2023/09/08 13:23:40;;;;;;;;;11.75;10.75;;;;;;;;5092200;27;46957;-73
2023/09/08 13:26:05;;;;;;;;;8.67;8.67;;;;;;;;5092740;27;45380;-72
2023/09/08 13:28:30;;;;;;;;;11.75;11.00;;;;;;;;5091171;27;45731;-72
2023/09/08 13:30:56;;;;;;;;;12.00;9.25;;;;;;;;5090408;27;45555;-72
2023/09/08 13:33:21;;;;;;;;;9.50;9.50;;;;;;;;5073648;27;47058;-72
2023/09/08 13:35:46;;;;;;;;;9.00;9.00;;;;;;;;5087896;27;45814;-72
2023/09/08 13:38:11;;;;;;;;;7.00;7.00;;;;;;;;5089503;27;45463;-73
2023/09/08 13:40:36;;;;;;;;;10.75;9.75;;;;;;;;5092218;27;45505;-72
2023/09/08 13:43:03;;;;;;;;;12.75;10.25;;;;;;;;5092446;27;45555;-73
2023/09/08 13:45:28;;;;;;;;;14.50;10.50;;;;;;;;5091029;27;45542;-71
2023/09/08 13:47:53;;;;;;;;;10.00;10.00;;;;;;;;5082153;27;45495;-72
2023/09/08 13:50:19;;;;;;;;;9.25;9.25;;;;;;;;5085884;27;45657;-72
2023/09/08 13:52:44;;;;;;;;;10.67;10.67;;;;;;;;5091431;27;45580;-72
2023/09/08 13:55:10;;;;;;;;;16.00;12.33;;;;;;;;5073591;27;45687;-71
2023/09/08 13:57:35;;;;;;;;;7.33;7.33;;;;;;;;5074308;27;45439;-73
2023/09/08 14:00:01;;;;;;;;;11.50;10.50;;;;;;;;5073880;27;46547;-72
2023/09/08 14:02:26;;;;;;;;;9.33;9.00;;;;;;;;5073634;27;46866;-73
2023/09/08 14:04:51;;;;;;;;;9.00;9.00;;;;;;;;5091312;27;45415;-72
2023/09/08 14:07:16;;;;;;;;;9.75;8.75;;;;;;;;5083176;27;45696;-71
2023/09/08 14:09:42;;;;;;;;;11.25;10.25;;;;;;;;5088210;27;45750;-72
2023/09/08 14:12:07;;;;;;;;;13.25;11.75;;;;;;;;5091863;27;45436;-72